Pagrindinis puslapis
METAR-TAF:

METAR-TAF

Oro uostai :

Homer, Aliaska, Jungtinės Amerikos Valstijos

platuma: 59-39N, ilguma: 151-29W, Aukštis: 26 m

Dabartinis oras

Ataskaita buvo paskelbta 21 minutes, ne 20:53 UTC
Vėjas 7 kt iš Vakarų
Temperatūra 11°C
Drėgmė 71%
Slėgis 997 hPa
Matomumas: 16.1 km
Apsiniaukę ne aukštis 4500 ft

METAR: PAHO 212053Z 26007KT 10SM OVC045 11/06 A2945 RMK AO2 RAB1957E07 SLP972 P0000 60001 T01060061 53022 $

Laikas: 13:14 (21:14 UTC)

Prognozė

Ataskaita buvo paskelbta 3 valandos ir 38 minutes, ne 17:36 UTC
Prognozė galioja nuo 21 metu 18 UTC su 22 metu 18 UTC
Vėjas 10 kt iš Vakarų/Pietvakarių
Matomumas: 9.7 km
Apsiniaukę ne aukštis 4000 ft
lietus
Nuo 21 metu 2200 UTC
Vėjas 12 kt iš Vakarų/Pietvakarių su gūsio iki 20 kt
Matomumas: 10 km
Su prošvaistėmis ne aukštis 6000 ft
Nuo 22 metu 0600 UTC
Vėjas 4 kt iš Vakarų
Matomumas: 10 km
Išsisklaidę debesys ne aukštis 25000 ft

TAF: PAHO 211736Z 2118/2218 25010KT 6SM -RA OVC040 FM212200 25012G20KT P6SM BKN060 FM220600 27004KT P6SM SCT250

Orai ataskaitas ir orų prognozės (METAR, TAF).

turimą stotys yra geltonos ir raudonos taškus žemėlapyje.

Perkelti pele per norėdami pamatyti stoties vardą.

Tada spustelėkite, norėdami matyti oro stebėjimo ir prognozės.

Norėdami pakeisti žemėlapį: spustelėkite ant žalios mygtukų su juodo kryžiaus žemyn,; žalią mygtuką su brūkšneliu, jei norite nutolinti; arba žalių rodyklių gretimoms žemėlapius.


METAR-TAF: